OOMS/MCT METAR and TAF weather

Enter ICAO airport designator
Station Type Date Time Source
OOMS METAR 2020/04/04 19:50 UTC NOAA

OOMS 041950Z 04002KT 9999 FEW030 28/20 Q1012 NOSIG


Station Type Date Time Source
OOMS Decoded METAR 2020/04/04 19:50 UTC NOAA

Seeb, International Airport, Oman (OOMS) 23-35N 058-17E 17M
Apr 04, 2020 - 03:50 PM EDT / 2020.04.04 1950 UTC
Wind: from the NE (040 degrees) at 2 MPH (2 KT):0
Visibility: greater than 7 mile(s):0
Sky conditions: mostly clear
Temperature: 82 F (28 C)
Dew Point: 68 F (20 C)
Relative Humidity: 61%
Pressure (altimeter): 29.88 in. Hg (1012 hPa)
ob: OOMS 041950Z 04002KT 9999 FEW030 28/20 Q1012 NOSIG
cycle: 20

Station Type Date Time Source
OOMS TAF 2020/04/04 18:03 UTC NOAA

TAF OOMS 041700Z 0418/0524 21010KT 9000 NSC
BECMG 0506/0508 05010KT
BECMG 0515/0516 25010KT

Example: see airport list